Aérodrome :
LOGIN :

S'inscrire | Disclaimer

   EN    FR    IT 

 










Légende :    VFR   VFR Marginal   IFR   IFR Intensif   IFR Très Intensif
Visi : 
Plafond : 
>= 8 km
>= 3000ft
5 à 8 km
1000 à 3000 ft
1500m à 5 km
500 à 1000 ft
800 à 1500m
200 à 500 ft
< 800m
< 200 ft
Symboles :   Orages  Brouillard  Fortes neiges  Fortes précipitations  Vent > 20 kt
SIGMETs :   Divers  Orages  Givrage  Turbulence  Onde Orograph.  Cendres Volcan.






- Altitude de l'aérodrome : 390 ft
- Code IATA : NQY


EGHQ - Newquay

DERNIER METAR :
  • 281520Z 24008KT 9999 VCSH SCT004 SCT020 13/12 Q1010

METARs EXPIRÉS :
  • 281450Z 26008KT 9999 BKN004 13/13 Q1010
  • 281420Z 26007KT 6000 -RADZ OVC004 13/13 Q1010 RERA
  • 281350Z 24007KT 9999 8000SW VCSH BKN004 13/12 Q1010 RERA
  • 281320Z 21011KT 3500 +RA BR FEW006 OVC010 13/13 Q1011
  • 281250Z 23008KT 4500 RA BR SCT005 OVC012 12/12 Q1011

TAF AMD TAF EGHQ
Valide du 28 à 15h jusqu'au 29 à 00h UTC


281504Z 2815/2824 20012KT 9999 SCT020
BECMG 2815/2818 29010KT
TEMPO 2815/2816 BKN004
PROB40
TEMPO 2815/2821 30015G25KT 7000 SHRA



MET'MAP, la Météo Aéronautique d'un coup d'oeil ! - Copyright ORBIFLY Décembre 2007 - Disclaimer

ORBIFLY MET'MAP TEAM :

Programmation & Développement : Alexandra Zaïnal
Sur une idée originale de : Baudouin d'Aumeries
Assistance à la programmation : Marc-Olivier Méhu
Soutien technique & logistique : Manuel Goepfert

Contact : metmap@orbifly.com




SOURCES & CREDITS :

   NOAA